createdAt,value
2023-02-10T06:00:34.086Z,9.38
2023-02-10T06:05:37.991Z,11.75
2023-02-10T06:10:41.710Z,12.90
2023-02-10T06:15:47.212Z,17.37
2023-02-10T06:20:52.159Z,9.23
2023-02-10T06:25:55.868Z,9.02
2023-02-10T06:31:01.094Z,8.87
2023-02-10T06:36:06.326Z,10.57
2023-02-10T06:41:09.957Z,8.77
2023-02-10T06:46:16.673Z,9.23
2023-02-10T06:51:20.620Z,12.93
2023-02-10T06:56:24.286Z,9.60
2023-02-10T07:01:29.431Z,9.63
2023-02-10T07:06:33.761Z,11.45
2023-02-10T07:11:37.506Z,12.32
2023-02-10T07:16:42.828Z,11.60
2023-02-10T07:21:46.537Z,13.52
2023-02-10T07:26:50.231Z,9.37
2023-02-10T07:31:55.422Z,11.93
2023-02-10T07:36:59.689Z,9.55
2023-02-10T07:42:03.375Z,10.60
2023-02-10T07:47:12.007Z,10.93
2023-02-10T07:52:15.717Z,11.35
2023-02-10T07:57:19.615Z,11.10
2023-02-10T08:02:24.775Z,9.95
2023-02-10T08:07:28.498Z,12.20
2023-02-10T08:12:33.763Z,10.27
2023-02-10T08:17:39.621Z,9.25
2023-02-10T08:22:43.706Z,9.90
2023-02-10T08:27:47.425Z,9.90
2023-02-10T08:32:52.655Z,15.03
2023-02-10T08:37:56.578Z,14.75
2023-02-10T08:43:00.505Z,12.37
2023-02-10T08:48:05.566Z,12.45
2023-02-10T08:53:09.292Z,10.68
2023-02-10T08:58:13.216Z,14.00
2023-02-10T09:03:18.687Z,10.80
2023-02-10T09:08:22.825Z,8.35
2023-02-10T09:13:26.767Z,10.73
2023-02-10T09:18:32.041Z,10.43
2023-02-10T09:23:35.855Z,11.90
2023-02-10T09:28:39.872Z,7.05
2023-02-10T09:33:45.445Z,10.65
2023-02-10T09:38:50.231Z,8.35
2023-02-10T09:44:12.377Z,12.52
2023-02-10T09:49:54.854Z,19.58
2023-02-10T09:54:58.798Z,10.63
2023-02-10T10:00:04.410Z,11.55
2023-02-10T10:05:22.507Z,7.97
2023-02-10T10:10:31.349Z,13.93
2023-02-10T10:15:42.589Z,7.25
2023-02-10T10:20:55.562Z,12.50
2023-02-10T10:26:06.631Z,11.57
2023-02-10T10:31:16.137Z,10.98
2023-02-10T10:36:24.967Z,7.35
2023-02-10T10:41:33.209Z,12.60
2023-02-10T10:46:42.691Z,8.05
2023-02-10T10:51:48.981Z,9.88
2023-02-10T10:56:56.411Z,12.90
2023-02-10T11:02:00.209Z,10.23
2023-02-10T11:07:12.059Z,9.77
2023-02-10T11:12:22.275Z,12.25
2023-02-10T11:17:30.134Z,9.13
2023-02-10T11:22:35.214Z,11.40
2023-02-10T11:27:38.900Z,11.80
2023-02-10T11:32:42.983Z,13.10
2023-02-10T11:37:54.383Z,9.43
2023-02-10T11:43:00.517Z,12.27
2023-02-10T11:48:06.313Z,8.13
2023-02-10T11:53:23.400Z,7.10
2023-02-10T11:59:05.521Z,6.45
2023-02-10T12:04:19.899Z,13.88
2023-02-10T12:09:31.660Z,7.47
2023-02-10T12:14:50.876Z,9.63
2023-02-10T12:20:07.917Z,7.07
2023-02-10T12:25:19.802Z,6.85
2023-02-10T12:30:35.721Z,6.53
2023-02-10T12:35:50.615Z,6.95
2023-02-10T12:41:05.900Z,9.10
2023-02-10T12:46:20.124Z,11.43
2023-02-10T12:51:36.607Z,13.50
2023-02-10T12:56:45.159Z,8.15
2023-02-10T13:01:53.188Z,6.45
2023-02-10T13:07:01.976Z,7.82
2023-02-10T13:12:15.860Z,7.12
2023-02-10T13:17:19.554Z,5.67
2023-02-10T13:22:33.298Z,6.20
2023-02-10T13:27:51.210Z,8.87
2023-02-10T13:33:03.936Z,5.80
2023-02-10T13:38:10.350Z,4.70
2023-02-10T13:43:29.770Z,7.32
2023-02-10T13:48:36.738Z,6.03
2023-02-10T13:53:43.400Z,7.10
2023-02-10T13:58:53.667Z,5.55
2023-02-10T14:03:58.462Z,5.20
2023-02-10T14:14:22.443Z,5.90
2023-02-10T14:19:32.611Z,12.23
2023-02-10T14:24:50.422Z,4.07
2023-02-10T14:30:00.886Z,3.05
2023-02-10T14:35:27.069Z,6.90
2023-02-10T14:40:34.109Z,6.62
2023-02-10T14:45:41.768Z,6.05
2023-02-10T14:50:47.609Z,6.95
2023-02-10T14:55:56.452Z,6.57
2023-02-10T15:01:07.369Z,5.20
2023-02-10T15:06:11.309Z,12.85
2023-02-10T15:11:37.754Z,3.13
2023-02-10T15:16:43.358Z,8.95
2023-02-10T15:21:48.069Z,3.80
2023-02-10T15:26:51.795Z,4.43
2023-02-10T15:31:59.868Z,7.47
2023-02-10T15:37:05.541Z,3.53
2023-02-10T15:42:23.101Z,6.93
2023-02-10T15:47:38.604Z,4.70
2023-02-10T15:52:44.519Z,5.78
2023-02-10T15:57:48.488Z,6.03
2023-02-10T16:02:53.997Z,5.75
2023-02-10T16:08:05.157Z,5.72
2023-02-10T16:13:08.999Z,5.37
2023-02-10T16:18:16.238Z,8.80
2023-02-10T16:23:21.884Z,5.40
2023-02-10T16:28:25.613Z,5.53
2023-02-10T16:33:31.602Z,7.87
2023-02-10T16:38:35.366Z,7.32
2023-02-10T16:43:39.136Z,9.27
2023-02-10T16:48:44.146Z,4.77
2023-02-10T16:53:47.941Z,4.55
2023-02-10T16:58:52.021Z,5.17
2023-02-10T17:03:57.048Z,14.10
2023-02-10T17:09:00.774Z,10.68
2023-02-10T17:14:04.372Z,6.53
2023-02-10T17:19:09.769Z,6.47
2023-02-10T17:24:14.358Z,7.47
2023-02-10T17:34:23.770Z,7.73
2023-02-10T17:39:41.573Z,10.02
2023-02-10T17:44:45.268Z,8.93
2023-02-10T17:49:50.358Z,8.17
2023-02-10T17:54:53.996Z,8.52
2023-02-10T17:59:57.590Z,8.73
2023-02-10T18:05:02.607Z,12.10
2023-02-10T18:10:08.059Z,13.32
2023-02-10T18:15:12.473Z,16.92
2023-02-10T18:20:17.470Z,11.12
2023-02-10T18:25:21.083Z,11.18
2023-02-10T18:30:24.965Z,7.40
2023-02-10T18:35:34.512Z,8.93
2023-02-10T18:40:41.906Z,8.25
2023-02-10T18:45:46.043Z,12.80
2023-02-10T18:50:51.877Z,17.17
2023-02-10T18:55:57.393Z,9.60
2023-02-10T19:01:05.039Z,11.15
2023-02-10T19:06:10.829Z,6.10
2023-02-10T19:11:16.210Z,8.15
2023-02-10T19:16:19.831Z,10.88
2023-02-10T19:21:24.815Z,11.27
2023-02-10T19:26:28.460Z,12.77
2023-02-10T19:31:32.414Z,9.17
2023-02-10T19:36:37.888Z,15.48
2023-02-10T19:41:42.313Z,13.52
2023-02-10T19:46:46.502Z,11.65
2023-02-10T19:51:51.517Z,13.80
2023-02-10T19:56:55.147Z,18.12
2023-02-10T20:01:58.800Z,13.93
2023-02-10T20:07:03.878Z,14.93
2023-02-10T20:12:08.817Z,14.05
2023-02-10T20:17:12.938Z,13.93
2023-02-10T20:22:17.998Z,13.32
2023-02-10T20:27:23.582Z,12.30
2023-02-10T20:32:27.939Z,13.45
2023-02-10T20:37:33.125Z,16.90
2023-02-10T20:42:36.795Z,18.98
2023-02-10T20:47:40.496Z,21.33
2023-02-10T20:52:45.549Z,14.93
2023-02-10T20:57:50.784Z,17.92
2023-02-10T21:02:57.140Z,13.40
2023-02-10T21:08:02.216Z,16.60
2023-02-10T21:13:05.917Z,12.48
2023-02-10T21:18:09.572Z,14.10
2023-02-10T21:23:14.949Z,14.03
2023-02-10T21:28:18.874Z,17.85
2023-02-10T21:33:23.424Z,19.52
2023-02-10T21:38:28.543Z,23.67
2023-02-10T21:43:32.655Z,13.62
2023-02-10T21:48:36.379Z,12.88
2023-02-10T21:53:41.844Z,14.82
2023-02-10T21:58:45.551Z,15.35
2023-02-10T22:03:49.283Z,11.87
2023-02-10T22:08:54.599Z,13.18
2023-02-10T22:13:58.235Z,14.30
2023-02-10T22:19:02.050Z,16.77
2023-02-10T22:24:07.901Z,17.35
2023-02-10T22:29:11.656Z,13.82
2023-02-10T22:34:15.313Z,13.62
2023-02-10T22:39:20.542Z,11.43
2023-02-10T22:44:24.195Z,13.62
2023-02-10T22:49:27.929Z,17.13
2023-02-10T22:54:33.119Z,11.23
2023-02-10T22:59:36.701Z,14.48
2023-02-10T23:04:40.390Z,13.93
2023-02-10T23:09:45.530Z,13.32
2023-02-10T23:14:49.207Z,13.52
2023-02-10T23:19:54.652Z,10.73
2023-02-10T23:24:59.807Z,19.00
